Time;durP1;ratioP1;P1;durP2;ratioP2;P2;SDS_P1;SDS_P2;PMS_P1;PMS_P2;Temp;Humidity;BMP_temperature;BMP_pressure;BME280_temperature;BME280_humidity;BME280_pressure;Samples;Min_cycle;Max_cycle;Signal;HPM_P1;HPM_P2
2022/12/24 00:01:33;;;;;;;43.13;27.77;;;6.50;99.90;;;;;;5046282;28;20216;-72
2022/12/24 00:03:58;;;;;;;14.63;8.80;;;6.50;99.90;;;;;;5049821;28;20318;-72
2022/12/24 00:06:24;;;;;;;14.63;8.77;;;6.50;99.90;;;;;;5060220;28;20204;-72
2022/12/24 00:08:51;;;;;;;15.40;9.20;;;6.50;99.90;;;;;;5048363;28;20179;-73
2022/12/24 00:11:17;;;;;;;13.60;8.20;;;6.50;99.90;;;;;;5046857;28;20204;-73
2022/12/24 00:13:42;;;;;;;14.77;8.20;;;6.50;99.90;;;;;;5061074;28;20203;-72
2022/12/24 00:16:09;;;;;;;15.10;8.50;;;6.50;99.90;;;;;;5047077;28;20220;-73
2022/12/24 00:18:34;;;;;;;15.43;8.87;;;6.50;99.90;;;;;;5047595;28;20227;-73
2022/12/24 00:21:02;;;;;;;16.00;9.17;;;6.40;99.90;;;;;;5044251;28;20646;-71
2022/12/24 00:23:28;;;;;;;15.70;9.20;;;6.40;99.90;;;;;;5064345;28;20261;-73
2022/12/24 00:25:54;;;;;;;14.33;8.63;;;6.40;99.90;;;;;;5047520;28;20200;-71
2022/12/24 00:28:20;;;;;;;14.23;8.77;;;6.40;99.90;;;;;;5045007;28;20211;-73
2022/12/24 00:30:46;;;;;;;11.40;7.60;;;6.30;99.90;;;;;;5043489;28;20203;-73
2022/12/24 00:33:12;;;;;;;13.73;8.23;;;6.30;99.90;;;;;;5041417;28;20186;-73
2022/12/24 00:35:39;;;;;;;16.10;8.63;;;6.30;99.90;;;;;;5066584;28;20172;-73
2022/12/24 00:38:04;;;;;;;11.77;7.23;;;6.30;99.90;;;;;;5055732;28;20219;-73
2022/12/24 00:40:31;;;;;;;13.73;8.40;;;6.30;99.90;;;;;;5042888;28;20219;-73
2022/12/24 00:42:57;;;;;;;13.23;8.07;;;6.30;99.90;;;;;;5046744;28;20276;-72
2022/12/24 00:45:23;;;;;;;11.13;7.07;;;6.30;99.90;;;;;;5046993;28;20180;-72
2022/12/24 00:47:49;;;;;;;11.93;7.07;;;6.20;99.90;;;;;;5046991;28;20199;-72
2022/12/24 00:50:14;;;;;;;14.37;7.57;;;6.20;99.90;;;;;;5064585;28;20565;-72
2022/12/24 00:52:40;;;;;;;13.87;7.70;;;6.20;99.90;;;;;;5047153;28;20218;-72
2022/12/24 00:55:07;;;;;;;10.67;7.07;;;6.30;99.90;;;;;;5041231;28;20215;-72
2022/12/24 00:57:33;;;;;;;12.73;7.83;;;6.30;99.90;;;;;;5056773;23;20307;-72
2022/12/24 00:59:59;;;;;;;13.03;7.93;;;6.20;99.90;;;;;;5011116;28;20263;-72
2022/12/24 01:02:24;;;;;;;14.63;7.87;;;6.20;99.90;;;;;;5026993;28;20222;-71
2022/12/24 01:07:35;;;;;;;11.63;6.93;;;6.20;99.90;;;;;;5021074;28;20286;-72
2022/12/24 01:10:01;;;;;;;12.77;7.57;;;6.20;99.90;;;;;;5018180;28;20286;-70
2022/12/24 01:12:27;;;;;;;12.70;7.40;;;6.20;99.90;;;;;;5019538;28;20196;-72
2022/12/24 01:14:52;;;;;;;14.77;7.77;;;6.20;99.90;;;;;;5022655;28;20176;-69
2022/12/24 01:17:18;;;;;;;13.00;7.53;;;6.20;99.90;;;;;;5022521;28;20210;-72
2022/12/24 01:19:44;;;;;;;11.93;7.83;;;6.20;99.90;;;;;;5018662;28;20595;-72
2022/12/24 01:22:10;;;;;;;9.70;7.13;;;6.30;99.90;;;;;;5018726;28;20267;-72
2022/12/24 01:24:35;;;;;;;11.23;7.23;;;6.20;99.90;;;;;;5020939;28;20224;-72
2022/12/24 01:27:01;;;;;;;14.50;7.77;;;6.20;99.90;;;;;;5019173;28;20200;-71
2022/12/24 01:29:26;;;;;;;11.83;7.37;;;6.20;99.90;;;;;;5023555;28;20216;-72
2022/12/24 01:31:52;;;;;;;12.43;8.67;;;6.20;99.90;;;;;;5020694;28;20232;-72
2022/12/24 01:34:17;;;;;;;11.70;7.67;;;6.20;99.90;;;;;;5032365;28;20208;-72
2022/12/24 01:36:43;;;;;;;12.60;8.10;;;6.20;99.90;;;;;;5018662;28;20227;-72
2022/12/24 01:39:09;;;;;;;15.07;8.53;;;6.20;99.90;;;;;;5020641;28;20667;-69
2022/12/24 01:44:31;;;;;;;14.37;7.67;;;6.30;99.90;;;;;;5017202;28;20303;-71
2022/12/24 01:47:27;;;;;;;11.57;8.10;;;6.30;99.90;;;;;;5018215;28;20776;-72
2022/12/24 01:49:58;;;;;;;17.33;8.93;;;6.30;99.90;;;;;;5010184;28;20215;-70
2022/12/24 01:52:32;;;;;;;14.23;8.90;;;6.30;99.90;;;;;;5018697;28;20803;-71
2022/12/24 01:55:02;;;;;;;13.00;8.60;;;6.20;99.90;;;;;;5019901;28;20605;-71
2022/12/24 01:57:36;;;;;;;16.20;10.00;;;6.30;99.90;;;;;;5024670;28;20212;-70
2022/12/24 02:00:07;;;;;;;14.90;8.87;;;6.30;99.90;;;;;;5017662;28;20183;-70
2022/12/24 02:02:33;;;;;;;16.07;9.43;;;6.30;99.90;;;;;;5021434;28;20592;-71
2022/12/24 02:05:15;;;;;;;16.33;9.23;;;6.30;99.90;;;;;;5018980;28;20216;-71
2022/12/24 02:07:41;;;;;;;16.00;9.13;;;6.40;99.90;;;;;;5018176;28;20223;-72
2022/12/24 02:10:11;;;;;;;13.23;8.33;;;6.30;99.90;;;;;;5020361;28;20882;-72
2022/12/24 02:12:37;;;;;;;14.60;9.53;;;6.30;99.90;;;;;;5020074;28;20216;-72
2022/12/24 02:15:05;;;;;;;16.47;10.03;;;6.30;99.90;;;;;;5021299;28;20542;-71
2022/12/24 02:17:52;;;;;;;16.40;9.80;;;6.30;99.90;;;;;;5023612;28;20208;-71
2022/12/24 02:20:56;;;;;;;16.47;9.50;;;6.30;99.90;;;;;;5021154;28;20255;-71
2022/12/24 02:23:33;;;;;;;16.60;8.90;;;6.40;99.90;;;;;;5019842;28;20295;-72
2022/12/24 02:26:28;;;;;;;15.97;9.13;;;6.30;99.90;;;;;;5035299;28;20211;-71
2022/12/24 02:29:09;;;;;;;14.07;9.40;;;6.30;99.90;;;;;;5021893;28;20201;-69
2022/12/24 02:31:48;;;;;;;15.63;9.47;;;6.30;99.90;;;;;;5023311;28;20204;-71
2022/12/24 02:34:37;;;;;;;15.97;9.97;;;6.30;99.90;;;;;;5023439;28;20201;-72
2022/12/24 02:37:05;;;;;;;17.07;9.63;;;6.30;99.90;;;;;;5021440;28;20237;-71
2022/12/24 02:39:47;;;;;;;16.83;9.63;;;6.30;99.90;;;;;;5023318;28;20294;-71
2022/12/24 02:42:19;;;;;;;16.43;9.67;;;6.30;99.90;;;;;;5021538;28;20664;-72
2022/12/24 02:44:52;;;;;;;16.00;9.63;;;6.30;99.90;;;;;;5023399;28;20231;-71
2022/12/24 02:47:21;;;;;;;14.37;9.60;;;6.30;99.90;;;;;;5024346;28;20727;-71
2022/12/24 02:49:47;;;;;;;18.03;10.23;;;6.40;99.90;;;;;;5024514;28;20223;-72
2022/12/24 02:52:28;;;;;;;16.97;9.27;;;6.30;99.90;;;;;;5023010;28;20243;-72
2022/12/24 02:54:54;;;;;;;17.03;9.73;;;6.30;99.90;;;;;;5020624;28;20215;-71
2022/12/24 02:57:58;;;;;;;15.67;10.20;;;6.30;99.90;;;;;;5026513;28;20278;-71
2022/12/24 03:00:24;;;;;;;13.87;9.50;;;6.30;99.90;;;;;;4997784;28;20271;-72
2022/12/24 03:03:35;;;;;;;16.77;10.23;;;6.40;99.90;;;;;;5024828;28;20674;-72
2022/12/24 03:06:36;;;;;;;20.03;11.53;;;6.30;99.90;;;;;;5023397;28;20213;-72
2022/12/24 03:09:19;;;;;;;17.57;10.50;;;6.40;99.90;;;;;;5021018;28;20262;-73
2022/12/24 03:11:54;;;;;;;19.10;10.40;;;6.30;99.90;;;;;;5022982;28;20211;-72
2022/12/24 03:14:21;;;;;;;18.13;10.27;;;6.30;99.90;;;;;;5020741;28;20220;-73
2022/12/24 03:16:48;;;;;;;16.43;10.87;;;6.30;99.90;;;;;;5021803;28;20591;-72
2022/12/24 03:19:14;;;;;;;16.43;10.70;;;6.30;99.90;;;;;;5022074;28;20262;-71
2022/12/24 03:21:41;;;;;;;17.27;10.90;;;6.30;99.90;;;;;;5021231;28;20212;-72
2022/12/24 03:24:09;;;;;;;18.43;10.50;;;6.30;99.90;;;;;;5021023;28;20244;-73
2022/12/24 03:26:35;;;;;;;16.50;11.07;;;6.30;99.90;;;;;;5024836;28;20208;-72
2022/12/24 03:29:05;;;;;;;21.37;10.73;;;6.30;99.90;;;;;;5019755;28;20336;-71
2022/12/24 03:31:59;;;;;;;20.50;11.90;;;6.30;99.90;;;;;;5023270;28;20282;-72
2022/12/24 03:34:24;;;;;;;20.47;10.97;;;6.30;99.90;;;;;;5018728;28;20250;-72
2022/12/24 03:36:50;;;;;;;18.63;10.70;;;6.30;99.90;;;;;;5022183;28;20299;-73
2022/12/24 03:39:15;;;;;;;21.03;11.93;;;6.30;99.90;;;;;;5021443;28;20177;-69
2022/12/24 03:41:41;;;;;;;16.70;10.43;;;6.40;99.90;;;;;;5020958;28;20184;-71
2022/12/24 03:44:07;;;;;;;19.13;10.37;;;6.30;99.90;;;;;;5022710;28;20235;-73
2022/12/24 03:46:32;;;;;;;20.80;10.90;;;6.30;99.90;;;;;;5024124;28;20223;-72
2022/12/24 03:48:58;;;;;;;18.17;11.03;;;6.40;99.90;;;;;;5028979;28;20219;-71
2022/12/24 03:51:24;;;;;;;20.53;11.27;;;6.30;99.90;;;;;;5029289;28;20246;-72
2022/12/24 03:53:55;;;;;;;18.80;11.50;;;6.40;99.90;;;;;;5027423;28;20181;-72
2022/12/24 03:56:21;;;;;;;17.67;11.00;;;6.40;99.90;;;;;;5022367;28;20219;-72
2022/12/24 03:58:48;;;;;;;19.47;11.37;;;6.40;99.90;;;;;;5024140;28;20285;-72
2022/12/24 04:01:14;;;;;;;18.23;10.20;;;6.40;99.90;;;;;;5022173;28;20593;-72
2022/12/24 04:03:40;;;;;;;16.90;11.13;;;6.40;99.90;;;;;;5027821;28;20286;-70
2022/12/24 04:06:14;;;;;;;17.87;10.93;;;6.40;99.90;;;;;;5024410;28;20679;-71
2022/12/24 04:08:40;;;;;;;17.63;10.63;;;6.40;99.90;;;;;;5042243;28;20793;-72
2022/12/24 04:11:10;;;;;;;18.07;11.03;;;6.30;99.90;;;;;;5024776;28;20225;-73
2022/12/24 04:13:36;;;;;;;17.70;10.93;;;6.40;99.90;;;;;;5023024;28;20200;-72
2022/12/24 04:16:05;;;;;;;21.33;10.77;;;6.30;99.90;;;;;;5025258;28;20219;-71
2022/12/24 04:18:31;;;;;;;19.80;11.17;;;6.30;99.90;;;;;;5028944;28;20211;-73
2022/12/24 04:20:57;;;;;;;16.87;11.23;;;6.40;99.90;;;;;;5023850;28;20565;-73
2022/12/24 04:23:23;;;;;;;18.40;10.90;;;6.40;99.90;;;;;;5028595;28;20629;-72
2022/12/24 04:25:49;;;;;;;16.33;10.70;;;6.30;99.90;;;;;;5027227;28;20209;-71
2022/12/24 04:28:15;;;;;;;17.10;10.27;;;6.30;99.90;;;;;;5022771;28;20207;-70
2022/12/24 04:30:41;;;;;;;18.07;10.17;;;6.30;99.90;;;;;;5026295;28;20295;-72
2022/12/24 04:33:07;;;;;;;18.37;9.93;;;6.40;99.90;;;;;;5026636;28;20185;-72
2022/12/24 04:35:33;;;;;;;15.97;10.17;;;6.30;99.90;;;;;;5026223;28;20200;-73
2022/12/24 04:37:58;;;;;;;15.37;10.10;;;6.40;99.90;;;;;;5025227;28;20215;-73
2022/12/24 04:40:24;;;;;;;16.33;10.40;;;6.30;99.90;;;;;;5028103;28;20580;-72
2022/12/24 04:42:50;;;;;;;17.67;9.53;;;6.30;99.90;;;;;;5023609;28;20901;-72
2022/12/24 04:45:17;;;;;;;16.57;9.30;;;6.40;99.90;;;;;;5025421;28;20200;-73
2022/12/24 04:47:42;;;;;;;15.43;9.73;;;6.40;99.90;;;;;;5028166;28;20753;-73
2022/12/24 04:50:09;;;;;;;14.63;10.00;;;6.50;99.90;;;;;;5026042;28;20211;-73
2022/12/24 04:52:35;;;;;;;14.70;9.50;;;6.50;99.90;;;;;;5021879;28;20211;-73
2022/12/24 04:55:01;;;;;;;15.57;9.80;;;6.50;99.90;;;;;;5020402;28;20292;-71
2022/12/24 04:57:29;;;;;;;17.07;9.70;;;6.40;99.90;;;;;;5027435;28;20291;-72
2022/12/24 04:59:55;;;;;;;14.53;8.90;;;6.40;99.90;;;;;;5025560;28;20177;-71
2022/12/24 05:02:20;;;;;;;15.77;9.70;;;6.40;99.90;;;;;;5024505;28;20575;-73
2022/12/24 05:04:46;;;;;;;14.30;9.30;;;6.40;99.90;;;;;;5024059;28;20219;-73
2022/12/24 05:07:12;;;;;;;14.73;9.10;;;6.40;99.90;;;;;;5023332;28;20665;-72
2022/12/24 05:09:37;;;;;;;15.83;9.60;;;6.40;99.90;;;;;;5024859;28;20342;-71
2022/12/24 05:12:03;;;;;;;15.53;9.10;;;6.40;99.90;;;;;;5024560;28;20181;-73
2022/12/24 05:14:28;;;;;;;14.20;9.60;;;6.40;99.90;;;;;;5022217;28;20257;-73
2022/12/24 05:16:54;;;;;;;14.70;9.53;;;6.30;99.90;;;;;;5025678;28;20217;-71
2022/12/24 05:19:19;;;;;;;14.77;9.20;;;6.30;99.90;;;;;;5024627;28;20208;-70
2022/12/24 05:26:20;;;;;;;16.73;9.23;;;6.30;99.90;;;;;;5019629;28;20356;-72
2022/12/24 05:27:15;;;;;;;12.67;8.97;;;6.30;99.90;;;;;;5026658;28;20744;-71
2022/12/24 05:29:40;;;;;;;18.13;9.50;;;6.30;99.90;;;;;;5023974;28;20169;-72
2022/12/24 05:32:06;;;;;;;16.30;10.23;;;6.30;99.90;;;;;;5024232;28;20228;-73
2022/12/24 05:34:32;;;;;;;16.80;9.47;;;6.30;99.90;;;;;;5024515;28;20775;-71
2022/12/24 05:36:57;;;;;;;15.47;10.53;;;6.30;99.90;;;;;;5028138;28;20216;-70
2022/12/24 05:39:23;;;;;;;14.80;9.53;;;6.30;99.90;;;;;;5024578;28;20562;-72
2022/12/24 05:41:48;;;;;;;16.07;9.90;;;6.30;99.90;;;;;;5018605;28;20211;-72
2022/12/24 05:44:15;;;;;;;17.17;10.77;;;6.20;99.90;;;;;;5023368;28;20296;-72
2022/12/24 05:46:41;;;;;;;16.40;10.13;;;6.30;99.90;;;;;;5031254;28;20202;-71
2022/12/24 05:49:06;;;;;;;15.67;9.53;;;6.30;99.90;;;;;;5021806;28;20220;-71
2022/12/24 05:51:32;;;;;;;14.57;9.10;;;6.20;99.90;;;;;;5026297;28;20597;-71
2022/12/24 05:53:58;;;;;;;14.83;10.03;;;6.20;99.90;;;;;;5027490;28;20184;-71
2022/12/24 05:56:24;;;;;;;18.63;10.47;;;6.10;99.90;;;;;;5022498;28;20712;-72
2022/12/24 05:58:50;;;;;;;15.30;10.80;;;6.20;99.90;;;;;;5024150;28;20231;-71
2022/12/24 06:01:17;;;;;;;18.40;10.63;;;6.20;99.90;;;;;;5023653;28;20278;-71
2022/12/24 06:03:43;;;;;;;16.20;10.23;;;6.20;99.90;;;;;;5025806;28;20220;-70
2022/12/24 06:06:16;;;;;;;14.40;9.73;;;6.20;99.90;;;;;;5024640;28;20192;-71
2022/12/24 06:08:42;;;;;;;18.47;11.13;;;6.20;99.90;;;;;;5023699;28;20200;-71
2022/12/24 06:11:10;;;;;;;15.47;10.77;;;6.20;99.90;;;;;;5020854;28;20583;-71
2022/12/24 06:13:37;;;;;;;16.27;10.37;;;6.10;99.90;;;;;;5024979;28;20200;-71
2022/12/24 06:16:05;;;;;;;18.43;10.77;;;6.10;99.90;;;;;;5020262;28;20212;-72
2022/12/24 06:18:32;;;;;;;18.90;11.77;;;6.10;99.90;;;;;;5024376;28;20208;-71
2022/12/24 06:20:58;;;;;;;17.07;10.37;;;6.20;99.90;;;;;;5021554;28;20239;-71
2022/12/24 06:23:24;;;;;;;20.10;11.63;;;6.10;99.90;;;;;;5028422;28;20224;-72
2022/12/24 06:25:50;;;;;;;19.43;11.43;;;6.20;99.90;;;;;;5023632;28;20227;-72
2022/12/24 06:28:17;;;;;;;17.07;11.27;;;6.20;99.90;;;;;;5024798;28;20263;-73
2022/12/24 06:30:47;;;;;;;15.90;11.10;;;6.20;99.90;;;;;;5024560;28;20584;-72
2022/12/24 06:33:13;;;;;;;18.87;11.37;;;6.20;99.90;;;;;;5022564;28;20597;-72
2022/12/24 06:35:39;;;;;;;16.97;11.40;;;6.20;99.90;;;;;;5029149;28;20568;-72
2022/12/24 06:38:05;;;;;;;19.37;11.97;;;6.20;99.90;;;;;;5024562;28;20303;-72
2022/12/24 06:40:30;;;;;;;16.60;10.63;;;6.10;99.90;;;;;;5023915;28;20235;-72
2022/12/24 06:42:56;;;;;;;16.93;11.07;;;6.20;99.90;;;;;;5021164;28;20303;-72
2022/12/24 06:45:21;;;;;;;16.83;11.10;;;6.10;99.90;;;;;;5021481;28;20219;-72
2022/12/24 06:47:47;;;;;;;16.70;11.13;;;6.00;99.90;;;;;;5023051;28;20255;-73
2022/12/24 06:50:13;;;;;;;16.53;11.13;;;6.00;99.90;;;;;;5025923;28;20219;-72
2022/12/24 06:52:38;;;;;;;17.73;11.13;;;6.00;99.90;;;;;;5024705;28;20228;-72
2022/12/24 06:55:04;;;;;;;21.20;12.57;;;6.00;99.90;;;;;;5022661;28;20578;-73
2022/12/24 07:00:16;;;;;;;18.03;10.97;;;6.10;99.90;;;;;;5045870;28;20223;-72
2022/12/24 07:02:43;;;;;;;18.83;11.87;;;6.10;99.90;;;;;;5050687;28;20210;-73
2022/12/24 07:05:10;;;;;;;18.17;10.77;;;6.10;99.90;;;;;;5042971;28;20226;-72
2022/12/24 07:07:37;;;;;;;41.43;26.43;;;6.00;99.90;;;;;;5046026;28;20200;-72
2022/12/24 07:10:03;;;;;;;20.80;12.23;;;6.10;99.90;;;;;;5049335;28;20215;-71
2022/12/24 07:12:28;;;;;;;17.03;10.20;;;6.10;99.90;;;;;;5045548;28;20741;-72
2022/12/24 07:14:54;;;;;;;18.57;11.10;;;6.10;99.90;;;;;;5049559;28;20235;-71
2022/12/24 07:17:20;;;;;;;16.73;10.93;;;6.10;99.90;;;;;;5040003;28;20208;-72
2022/12/24 07:19:45;;;;;;;18.70;11.77;;;6.20;99.90;;;;;;5046827;28;20282;-73
2022/12/24 07:22:11;;;;;;;17.43;10.30;;;6.20;99.90;;;;;;5048960;28;20218;-72
2022/12/24 07:24:36;;;;;;;18.80;11.37;;;6.10;99.90;;;;;;5047888;28;20770;-73
2022/12/24 07:27:02;;;;;;;18.43;11.30;;;6.10;99.90;;;;;;5045052;28;20262;-72
2022/12/24 07:29:27;;;;;;;19.97;11.70;;;6.10;99.90;;;;;;5050305;28;20293;-72
2022/12/24 07:31:53;;;;;;;17.63;10.80;;;6.20;99.90;;;;;;5043896;28;20694;-71
2022/12/24 07:34:19;;;;;;;19.20;11.20;;;6.20;99.90;;;;;;5048714;28;20211;-72
2022/12/24 07:36:44;;;;;;;16.97;10.67;;;6.20;99.90;;;;;;5051225;28;20280;-72
2022/12/24 07:39:10;;;;;;;18.77;11.17;;;6.10;99.90;;;;;;5043059;28;20200;-71
2022/12/24 07:41:36;;;;;;;15.43;10.13;;;6.20;99.90;;;;;;5049060;28;20222;-72
2022/12/24 07:44:01;;;;;;;16.13;9.90;;;6.10;99.90;;;;;;5045874;28;20211;-71
2022/12/24 07:46:27;;;;;;;17.57;11.53;;;6.10;99.90;;;;;;5043924;28;20242;-72
2022/12/24 07:48:53;;;;;;;17.40;10.07;;;6.00;99.90;;;;;;5047778;28;20219;-71
2022/12/24 07:51:18;;;;;;;17.87;10.57;;;6.10;99.90;;;;;;5044271;28;20184;-73
2022/12/24 07:53:46;;;;;;;18.43;11.23;;;6.20;99.90;;;;;;5048509;28;20172;-73
2022/12/24 07:56:16;;;;;;;18.80;10.77;;;6.10;99.90;;;;;;5048950;28;21336;-73
2022/12/24 07:58:42;;;;;;;19.97;10.37;;;6.20;99.90;;;;;;5044891;28;20239;-71
2022/12/24 08:01:07;;;;;;;17.43;10.37;;;6.10;99.90;;;;;;5043996;28;20249;-72
2022/12/24 08:03:33;;;;;;;19.57;11.07;;;6.20;99.90;;;;;;5050711;28;20223;-73
2022/12/24 08:05:59;;;;;;;18.17;10.83;;;6.20;99.90;;;;;;5045717;28;20196;-73
2022/12/24 08:08:25;;;;;;;16.57;10.87;;;6.10;99.90;;;;;;5047683;28;20211;-73
2022/12/24 08:10:50;;;;;;;18.80;11.47;;;6.10;99.90;;;;;;5046320;28;20211;-73
2022/12/24 08:13:16;;;;;;;18.27;11.03;;;6.10;99.90;;;;;;5039490;28;20204;-73
2022/12/24 08:15:43;;;;;;;17.60;11.07;;;6.20;99.90;;;;;;5046658;28;20211;-73
2022/12/24 08:18:09;;;;;;;20.07;11.33;;;6.10;99.90;;;;;;5044625;28;20195;-72
2022/12/24 08:20:37;;;;;;;21.43;11.60;;;6.10;99.90;;;;;;5045853;28;20172;-72
2022/12/24 08:23:03;;;;;;;19.87;11.30;;;6.10;99.90;;;;;;5048115;28;20200;-72
2022/12/24 08:25:29;;;;;;;20.97;12.33;;;6.10;99.90;;;;;;5044582;28;20197;-73
2022/12/24 08:27:56;;;;;;;21.43;11.90;;;6.20;99.90;;;;;;5046188;28;20294;-72
2022/12/24 08:30:22;;;;;;;20.23;12.37;;;6.20;99.90;;;;;;5049169;28;20673;-73
2022/12/24 08:32:47;;;;;;;21.53;12.37;;;6.20;99.90;;;;;;5044105;28;20168;-73
2022/12/24 08:35:13;;;;;;;19.73;12.27;;;6.20;99.90;;;;;;5045892;28;20200;-72
2022/12/24 08:37:39;;;;;;;22.87;13.13;;;6.20;99.90;;;;;;5045182;28;20207;-73
2022/12/24 08:40:06;;;;;;;20.67;12.47;;;6.10;99.90;;;;;;5043405;28;20204;-72
2022/12/24 08:42:31;;;;;;;20.13;12.77;;;6.20;99.90;;;;;;5048406;28;20302;-71
2022/12/24 08:44:57;;;;;;;20.90;12.63;;;6.20;99.90;;;;;;5047059;28;20347;-72
2022/12/24 08:47:23;;;;;;;22.17;12.17;;;6.20;99.90;;;;;;5046398;28;20227;-73
2022/12/24 08:49:48;;;;;;;21.23;13.37;;;6.20;99.90;;;;;;5047734;28;20207;-72
2022/12/24 08:52:14;;;;;;;22.77;13.73;;;6.20;99.90;;;;;;5044121;28;20224;-72
2022/12/24 08:54:39;;;;;;;22.47;13.30;;;6.10;99.90;;;;;;5046117;28;20207;-72
2022/12/24 08:57:05;;;;;;;20.67;13.53;;;6.10;99.90;;;;;;5048964;28;20176;-72
2022/12/24 08:59:31;;;;;;;23.97;12.87;;;6.10;99.90;;;;;;5043266;28;20338;-72
2022/12/24 09:01:56;;;;;;;20.67;12.87;;;6.20;99.90;;;;;;5045821;28;20204;-72
2022/12/24 09:04:22;;;;;;;24.43;14.40;;;6.30;99.90;;;;;;5049430;28;20233;-72
2022/12/24 09:06:47;;;;;;;24.63;13.67;;;6.30;99.90;;;;;;5044353;28;20219;-72
2022/12/24 09:09:13;;;;;;;25.07;14.43;;;6.30;99.90;;;;;;5044937;28;20208;-72
2022/12/24 09:11:38;;;;;;;21.77;12.97;;;6.30;99.90;;;;;;5046172;28;20588;-72
2022/12/24 09:14:04;;;;;;;21.57;12.53;;;6.30;99.90;;;;;;5042762;28;20203;-72
2022/12/24 09:16:30;;;;;;;20.93;12.70;;;6.40;99.90;;;;;;5046684;28;20308;-73
2022/12/24 09:18:56;;;;;;;22.60;13.27;;;6.40;99.90;;;;;;5045644;28;20211;-73
2022/12/24 09:21:22;;;;;;;19.70;12.13;;;6.30;99.90;;;;;;5043642;28;20230;-73
2022/12/24 09:23:47;;;;;;;20.50;12.67;;;6.30;99.90;;;;;;5048937;28;20200;-72
2022/12/24 09:26:16;;;;;;;20.87;12.40;;;6.30;99.90;;;;;;5043794;28;20226;-73
2022/12/24 09:28:42;;;;;;;23.73;13.10;;;6.40;99.90;;;;;;5044243;28;20207;-72
2022/12/24 09:31:10;;;;;;;22.27;12.83;;;6.40;99.90;;;;;;5045622;28;20220;-72
2022/12/24 09:33:38;;;;;;;19.80;12.57;;;6.50;99.90;;;;;;5043039;28;20199;-72
2022/12/24 09:36:04;;;;;;;20.33;12.43;;;6.50;99.90;;;;;;5045630;28;20196;-72
2022/12/24 09:38:31;;;;;;;22.17;14.67;;;6.50;99.90;;;;;;5045655;28;20208;-73
2022/12/24 09:40:59;;;;;;;22.00;13.10;;;6.50;99.90;;;;;;5042864;28;20203;-72
2022/12/24 09:43:28;;;;;;;22.67;13.93;;;6.50;99.90;;;;;;5046641;28;20264;-73
2022/12/24 09:46:25;;;;;;;22.80;12.90;;;6.50;99.90;;;;;;5042703;28;20592;-72
2022/12/24 09:49:04;;;;;;;25.73;13.97;;;6.60;99.90;;;;;;5043515;28;20625;-72
2022/12/24 09:51:44;;;;;;;23.37;13.53;;;6.70;99.90;;;;;;5045191;28;20286;-73
2022/12/24 09:54:13;;;;;;;21.07;14.00;;;6.70;99.90;;;;;;5043106;28;20182;-73
2022/12/24 09:56:43;;;;;;;22.63;13.50;;;6.70;99.90;;;;;;5047465;28;20616;-72
2022/12/24 09:59:40;;;;;;;19.67;13.60;;;6.70;99.90;;;;;;5042541;28;20219;-71
2022/12/24 10:02:10;;;;;;;22.97;14.23;;;6.80;99.90;;;;;;5035830;28;20296;-73
2022/12/24 10:04:36;;;;;;;23.50;14.30;;;6.80;99.90;;;;;;5048561;28;20212;-73
2022/12/24 10:07:23;;;;;;;21.87;14.40;;;6.90;99.90;;;;;;5043056;28;20218;-73
2022/12/24 10:10:12;;;;;;;23.30;14.10;;;6.90;99.90;;;;;;5042643;28;20269;-73
2022/12/24 10:13:00;;;;;;;26.63;14.60;;;7.00;99.90;;;;;;5044078;28;20585;-73
2022/12/24 10:15:39;;;;;;;27.10;14.13;;;7.10;99.90;;;;;;5043827;28;20682;-71
2022/12/24 10:18:33;;;;;;;24.47;14.70;;;7.10;99.90;;;;;;5046204;28;20198;-73
2022/12/24 10:21:11;;;;;;;24.53;14.73;;;7.20;99.90;;;;;;5039963;28;20254;-70
2022/12/24 10:24:07;;;;;;;32.80;14.60;;;7.20;99.90;;;;;;5042747;28;20690;-72
2022/12/24 10:26:35;;;;;;;21.17;12.77;;;7.20;99.90;;;;;;5037991;28;20205;-73
2022/12/24 10:29:12;;;;;;;20.80;13.00;;;7.30;99.90;;;;;;5043107;28;20233;-72
2022/12/24 10:32:03;;;;;;;16.47;11.43;;;7.30;99.90;;;;;;5046373;28;20572;-72
2022/12/24 10:34:43;;;;;;;22.20;12.77;;;7.30;99.90;;;;;;5041701;28;20721;-73
2022/12/24 10:37:16;;;;;;;22.27;12.33;;;7.30;99.90;;;;;;5043945;28;20207;-72
2022/12/24 10:39:42;;;;;;;19.87;12.93;;;7.30;99.90;;;;;;5042867;28;20241;-72
2022/12/24 10:42:09;;;;;;;19.27;12.27;;;7.30;99.90;;;;;;5043519;28;20208;-72
2022/12/24 10:44:35;;;;;;;20.57;12.50;;;7.40;99.90;;;;;;5052191;28;20302;-72
2022/12/24 10:47:01;;;;;;;17.77;11.57;;;7.40;99.90;;;;;;5047963;28;20303;-72
2022/12/24 10:49:41;;;;;;;18.77;12.73;;;7.40;99.90;;;;;;5046744;28;20227;-72
2022/12/24 10:52:13;;;;;;;18.07;11.10;;;7.40;99.90;;;;;;5047562;28;20271;-72
2022/12/24 10:55:20;;;;;;;18.17;10.97;;;7.50;99.90;;;;;;5047911;28;20207;-73
2022/12/24 10:57:58;;;;;;;16.23;10.57;;;7.40;99.90;;;;;;5050080;28;20287;-72
2022/12/24 11:00:24;;;;;;;17.77;10.67;;;7.50;99.90;;;;;;5040716;28;20537;-72
2022/12/24 11:03:11;;;;;;;17.20;10.50;;;7.50;99.90;;;;;;5048536;28;20194;-72
2022/12/24 11:05:38;;;;;;;16.73;10.37;;;7.50;99.90;;;;;;5048143;28;20223;-72
2022/12/24 11:08:12;;;;;;;16.53;10.70;;;7.50;99.90;;;;;;5045525;28;20239;-71
2022/12/24 11:10:57;;;;;;;18.03;10.43;;;7.50;99.90;;;;;;5045268;28;20325;-72
2022/12/24 11:13:34;;;;;;;17.30;10.53;;;7.50;99.90;;;;;;5044102;28;20200;-71
2022/12/24 11:16:20;;;;;;;18.67;11.17;;;7.50;99.90;;;;;;5044871;28;20207;-72
2022/12/24 11:18:52;;;;;;;15.87;10.47;;;7.50;99.90;;;;;;5049571;28;20606;-73
2022/12/24 11:21:21;;;;;;;16.93;10.30;;;7.60;99.90;;;;;;5042391;28;20183;-72
2022/12/24 11:24:11;;;;;;;15.10;10.20;;;7.60;99.90;;;;;;5049435;28;20837;-73
2022/12/24 11:26:37;;;;;;;16.10;10.87;;;7.60;99.90;;;;;;5021369;28;20288;-73
2022/12/24 11:29:22;;;;;;;15.17;10.27;;;7.70;99.90;;;;;;5044525;28;20750;-71
2022/12/24 11:31:49;;;;;;;15.17;10.00;;;7.70;99.90;;;;;;5048571;28;20202;-72
2022/12/24 11:34:29;;;;;;;16.23;10.13;;;7.80;99.90;;;;;;5043638;28;20237;-72
2022/12/24 11:37:09;;;;;;;13.97;8.83;;;7.70;99.90;;;;;;5040983;28;20232;-72
2022/12/24 11:39:47;;;;;;;13.53;9.23;;;7.70;99.90;;;;;;5030873;28;20356;-73
2022/12/24 11:42:36;;;;;;;13.07;9.03;;;7.80;99.90;;;;;;5043579;28;20643;-73
2022/12/24 11:45:21;;;;;;;15.17;9.37;;;7.70;99.90;;;;;;5046728;28;20619;-71
2022/12/24 11:47:46;;;;;;;14.87;8.97;;;7.80;99.90;;;;;;5043811;28;20203;-73
2022/12/24 11:50:29;;;;;;;12.90;8.90;;;7.80;99.90;;;;;;5046629;28;20223;-72
2022/12/24 11:53:19;;;;;;;13.93;9.50;;;7.80;99.90;;;;;;5049552;28;20222;-72
2022/12/24 11:55:55;;;;;;;13.23;8.80;;;7.90;99.90;;;;;;5042303;28;20290;-73
2022/12/24 11:58:42;;;;;;;12.23;8.07;;;7.90;99.90;;;;;;5048054;28;20238;-71
2022/12/24 12:01:25;;;;;;;12.80;8.57;;;7.90;99.90;;;;;;5038665;28;20211;-72
2022/12/24 12:03:54;;;;;;;15.03;8.40;;;8.00;99.90;;;;;;5045355;28;20222;-73
2022/12/24 12:06:48;;;;;;;13.23;8.33;;;8.00;99.90;;;;;;5049297;28;20176;-72
2022/12/24 12:09:37;;;;;;;10.47;7.23;;;8.00;99.90;;;;;;5041325;28;20705;-72
2022/12/24 12:12:16;;;;;;;10.57;7.67;;;8.00;99.90;;;;;;5044533;28;20231;-73
2022/12/24 12:14:50;;;;;;;13.63;8.27;;;8.00;99.90;;;;;;5024804;28;20291;-72
2022/12/24 12:17:39;;;;;;;12.30;7.47;;;8.10;99.90;;;;;;5025144;28;20243;-72
2022/12/24 12:20:25;;;;;;;10.47;7.10;;;8.20;99.90;;;;;;5025645;28;20762;-72
2022/12/24 12:23:03;;;;;;;9.73;6.80;;;8.20;99.90;;;;;;5040631;28;20638;-73
2022/12/24 12:25:35;;;;;;;13.73;8.23;;;8.20;99.90;;;;;;5049135;28;20818;-73
2022/12/24 12:28:03;;;;;;;11.70;7.37;;;8.20;99.90;;;;;;5046204;28;20211;-72
2022/12/24 12:30:30;;;;;;;8.40;6.07;;;8.30;99.90;;;;;;5044975;28;20224;-72
2022/12/24 12:33:03;;;;;;;10.30;6.53;;;8.30;99.90;;;;;;5048949;28;20180;-73
2022/12/24 12:35:37;;;;;;;11.80;6.97;;;8.40;99.90;;;;;;5042429;28;20204;-73
2022/12/24 12:38:10;;;;;;;9.27;6.60;;;8.50;99.90;;;;;;5045877;28;20629;-71
2022/12/24 12:41:00;;;;;;;12.93;6.03;;;8.40;99.90;;;;;;5045840;28;20764;-72
2022/12/24 12:43:37;;;;;;;9.03;6.43;;;8.40;99.90;;;;;;5039534;28;20204;-72
2022/12/24 12:46:06;;;;;;;13.00;6.53;;;8.40;99.90;;;;;;5038183;28;20311;-72
2022/12/24 12:48:56;;;;;;;10.50;6.27;;;8.30;99.90;;;;;;5024110;28;20208;-73
2022/12/24 12:51:40;;;;;;;9.07;5.63;;;8.40;99.90;;;;;;5024951;28;20235;-72
2022/12/24 12:54:21;;;;;;;9.17;6.10;;;8.40;99.90;;;;;;5024140;28;20181;-72
2022/12/24 12:56:52;;;;;;;13.57;6.53;;;8.40;99.90;;;;;;5026413;28;20232;-73
2022/12/24 12:59:29;;;;;;;10.67;5.93;;;8.40;99.90;;;;;;5041202;28;20293;-72
2022/12/24 13:02:11;;;;;;;10.77;6.80;;;8.40;99.90;;;;;;5035440;28;20203;-72
2022/12/24 13:05:14;;;;;;;15.03;6.60;;;8.40;99.90;;;;;;5042791;28;20210;-73
2022/12/24 13:08:07;;;;;;;11.47;6.07;;;8.50;99.90;;;;;;5045024;28;20648;-73
2022/12/24 13:10:52;;;;;;;11.93;5.57;;;8.50;99.90;;;;;;5040358;28;20694;-72